sensor_id;sensor_type;location;lat;lon;timestamp;temperature;humidity
7388;DHT22;3735;50.136;11.062;2022-10-16T00:01:20;15.80;99.90
7388;DHT22;3735;50.136;11.062;2022-10-16T00:03:48;15.80;99.90
7388;DHT22;3735;50.136;11.062;2022-10-16T00:06:17;15.80;99.90
7388;DHT22;3735;50.136;11.062;2022-10-16T00:08:45;15.80;99.90
7388;DHT22;3735;50.136;11.062;2022-10-16T00:13:43;15.90;99.90
7388;DHT22;3735;50.136;11.062;2022-10-16T00:16:11;15.90;99.90
7388;DHT22;3735;50.136;11.062;2022-10-16T00:18:38;15.90;99.90
7388;DHT22;3735;50.136;11.062;2022-10-16T00:21:07;15.90;99.90
7388;DHT22;3735;50.136;11.062;2022-10-16T00:23:38;15.90;99.90
7388;DHT22;3735;50.136;11.062;2022-10-16T00:26:08;15.90;99.90
7388;DHT22;3735;50.136;11.062;2022-10-16T00:28:37;15.90;99.90
7388;DHT22;3735;50.136;11.062;2022-10-16T00:31:05;15.90;99.90
7388;DHT22;3735;50.136;11.062;2022-10-16T00:33:32;15.90;99.90
7388;DHT22;3735;50.136;11.062;2022-10-16T00:35:59;15.90;99.90
7388;DHT22;3735;50.136;11.062;2022-10-16T00:38:26;15.90;99.90
7388;DHT22;3735;50.136;11.062;2022-10-16T00:40:52;15.90;99.90
7388;DHT22;3735;50.136;11.062;2022-10-16T00:43:53;15.90;99.90
7388;DHT22;3735;50.136;11.062;2022-10-16T00:46:26;16.00;99.90
7388;DHT22;3735;50.136;11.062;2022-10-16T00:49:15;15.90;99.90
7388;DHT22;3735;50.136;11.062;2022-10-16T00:51:47;15.90;99.90
7388;DHT22;3735;50.136;11.062;2022-10-16T00:54:20;15.80;99.90
7388;DHT22;3735;50.136;11.062;2022-10-16T00:56:50;15.80;99.90
7388;DHT22;3735;50.136;11.062;2022-10-16T00:59:25;15.90;99.90
7388;DHT22;3735;50.136;11.062;2022-10-16T01:01:54;15.90;99.90
7388;DHT22;3735;50.136;11.062;2022-10-16T01:04:21;15.90;99.90
7388;DHT22;3735;50.136;11.062;2022-10-16T01:13:07;15.90;99.90
7388;DHT22;3735;50.136;11.062;2022-10-16T01:16:09;15.80;99.90
7388;DHT22;3735;50.136;11.062;2022-10-16T01:18:44;15.90;99.90
7388;DHT22;3735;50.136;11.062;2022-10-16T01:21:19;15.80;99.90
7388;DHT22;3735;50.136;11.062;2022-10-16T01:24:06;15.80;99.90
7388;DHT22;3735;50.136;11.062;2022-10-16T01:27:06;15.70;99.90
7388;DHT22;3735;50.136;11.062;2022-10-16T01:29:42;15.70;99.90
7388;DHT22;3735;50.136;11.062;2022-10-16T01:32:38;15.70;99.90
7388;DHT22;3735;50.136;11.062;2022-10-16T01:38:04;15.80;99.90
7388;DHT22;3735;50.136;11.062;2022-10-16T01:40:37;15.80;99.90
7388;DHT22;3735;50.136;11.062;2022-10-16T01:43:10;15.80;99.90
7388;DHT22;3735;50.136;11.062;2022-10-16T01:45:41;15.80;99.90
7388;DHT22;3735;50.136;11.062;2022-10-16T01:48:12;15.80;99.90
7388;DHT22;3735;50.136;11.062;2022-10-16T01:50:44;15.80;99.90
7388;DHT22;3735;50.136;11.062;2022-10-16T01:53:16;15.70;99.90
7388;DHT22;3735;50.136;11.062;2022-10-16T01:55:45;15.70;99.90
7388;DHT22;3735;50.136;11.062;2022-10-16T01:58:14;15.60;99.90
7388;DHT22;3735;50.136;11.062;2022-10-16T02:00:43;15.50;99.90
7388;DHT22;3735;50.136;11.062;2022-10-16T02:03:14;15.50;99.90
7388;DHT22;3735;50.136;11.062;2022-10-16T02:05:51;15.40;99.90
7388;DHT22;3735;50.136;11.062;2022-10-16T02:08:21;15.30;99.90
7388;DHT22;3735;50.136;11.062;2022-10-16T02:10:49;15.30;99.90
7388;DHT22;3735;50.136;11.062;2022-10-16T02:16:00;15.20;99.90
7388;DHT22;3735;50.136;11.062;2022-10-16T02:18:26;15.20;99.90
7388;DHT22;3735;50.136;11.062;2022-10-16T02:26:59;15.10;99.90
7388;DHT22;3735;50.136;11.062;2022-10-16T02:29:43;15.00;99.90
7388;DHT22;3735;50.136;11.062;2022-10-16T02:32:21;15.00;99.90
7388;DHT22;3735;50.136;11.062;2022-10-16T02:34:50;15.00;99.90
7388;DHT22;3735;50.136;11.062;2022-10-16T02:37:18;14.90;99.90
7388;DHT22;3735;50.136;11.062;2022-10-16T02:39:44;14.90;99.90
7388;DHT22;3735;50.136;11.062;2022-10-16T02:42:12;14.90;99.90
7388;DHT22;3735;50.136;11.062;2022-10-16T02:44:39;14.80;99.90
7388;DHT22;3735;50.136;11.062;2022-10-16T02:47:05;14.80;99.90
7388;DHT22;3735;50.136;11.062;2022-10-16T02:49:30;14.80;99.90
7388;DHT22;3735;50.136;11.062;2022-10-16T02:51:56;14.80;99.90
7388;DHT22;3735;50.136;11.062;2022-10-16T02:54:22;14.80;99.90
7388;DHT22;3735;50.136;11.062;2022-10-16T02:56:48;14.80;99.90
7388;DHT22;3735;50.136;11.062;2022-10-16T02:59:13;14.70;99.90
7388;DHT22;3735;50.136;11.062;2022-10-16T03:01:39;14.80;99.90
7388;DHT22;3735;50.136;11.062;2022-10-16T03:04:05;14.80;99.90
7388;DHT22;3735;50.136;11.062;2022-10-16T03:06:31;14.80;99.90
7388;DHT22;3735;50.136;11.062;2022-10-16T03:08:56;14.90;99.90
7388;DHT22;3735;50.136;11.062;2022-10-16T03:11:22;14.90;99.90
7388;DHT22;3735;50.136;11.062;2022-10-16T03:13:48;14.90;99.90
7388;DHT22;3735;50.136;11.062;2022-10-16T03:16:13;14.80;99.90
7388;DHT22;3735;50.136;11.062;2022-10-16T03:18:39;14.80;99.90
7388;DHT22;3735;50.136;11.062;2022-10-16T03:21:05;14.80;99.90
7388;DHT22;3735;50.136;11.062;2022-10-16T03:23:31;14.80;99.90
7388;DHT22;3735;50.136;11.062;2022-10-16T03:25:56;14.80;99.90
7388;DHT22;3735;50.136;11.062;2022-10-16T03:28:22;14.80;99.90
7388;DHT22;3735;50.136;11.062;2022-10-16T03:30:48;14.70;99.90
7388;DHT22;3735;50.136;11.062;2022-10-16T03:33:13;14.70;99.90
7388;DHT22;3735;50.136;11.062;2022-10-16T03:35:39;14.70;99.90
7388;DHT22;3735;50.136;11.062;2022-10-16T03:38:05;14.70;99.90
7388;DHT22;3735;50.136;11.062;2022-10-16T03:40:31;14.70;99.90
7388;DHT22;3735;50.136;11.062;2022-10-16T03:42:59;14.70;99.90
7388;DHT22;3735;50.136;11.062;2022-10-16T03:45:25;14.70;99.90
7388;DHT22;3735;50.136;11.062;2022-10-16T03:47:52;14.70;99.90
7388;DHT22;3735;50.136;11.062;2022-10-16T03:50:18;14.80;99.90
7388;DHT22;3735;50.136;11.062;2022-10-16T03:52:43;14.70;99.90
7388;DHT22;3735;50.136;11.062;2022-10-16T03:55:09;14.80;99.90
7388;DHT22;3735;50.136;11.062;2022-10-16T03:57:35;14.80;99.90
7388;DHT22;3735;50.136;11.062;2022-10-16T04:00:00;14.80;99.90
7388;DHT22;3735;50.136;11.062;2022-10-16T04:02:26;14.80;99.90
7388;DHT22;3735;50.136;11.062;2022-10-16T04:04:52;14.80;99.90
7388;DHT22;3735;50.136;11.062;2022-10-16T04:07:18;14.80;99.90
7388;DHT22;3735;50.136;11.062;2022-10-16T04:09:44;14.80;99.90
7388;DHT22;3735;50.136;11.062;2022-10-16T04:12:09;14.80;99.90
7388;DHT22;3735;50.136;11.062;2022-10-16T04:14:35;14.80;99.90
7388;DHT22;3735;50.136;11.062;2022-10-16T04:17:01;14.80;99.90
7388;DHT22;3735;50.136;11.062;2022-10-16T04:19:27;14.80;99.90
7388;DHT22;3735;50.136;11.062;2022-10-16T04:21:52;14.80;99.90
7388;DHT22;3735;50.136;11.062;2022-10-16T04:24:18;14.80;99.90
7388;DHT22;3735;50.136;11.062;2022-10-16T04:26:44;14.80;99.90
7388;DHT22;3735;50.136;11.062;2022-10-16T04:29:09;14.80;99.90
7388;DHT22;3735;50.136;11.062;2022-10-16T04:31:35;14.80;99.90
7388;DHT22;3735;50.136;11.062;2022-10-16T04:34:01;14.80;99.90
7388;DHT22;3735;50.136;11.062;2022-10-16T04:36:27;14.80;99.90
7388;DHT22;3735;50.136;11.062;2022-10-16T04:38:52;14.80;99.90
7388;DHT22;3735;50.136;11.062;2022-10-16T04:41:19;14.80;99.90
7388;DHT22;3735;50.136;11.062;2022-10-16T04:43:44;14.70;99.90
7388;DHT22;3735;50.136;11.062;2022-10-16T04:46:10;14.70;99.90
7388;DHT22;3735;50.136;11.062;2022-10-16T04:48:36;14.70;99.90
7388;DHT22;3735;50.136;11.062;2022-10-16T04:51:01;14.70;99.90
7388;DHT22;3735;50.136;11.062;2022-10-16T04:53:27;14.70;99.90
7388;DHT22;3735;50.136;11.062;2022-10-16T04:55:53;14.70;99.90
7388;DHT22;3735;50.136;11.062;2022-10-16T04:58:19;14.70;99.90
7388;DHT22;3735;50.136;11.062;2022-10-16T05:00:45;14.70;99.90
7388;DHT22;3735;50.136;11.062;2022-10-16T05:03:12;14.70;99.90
7388;DHT22;3735;50.136;11.062;2022-10-16T05:05:42;14.70;99.90
7388;DHT22;3735;50.136;11.062;2022-10-16T05:08:12;14.70;99.90
7388;DHT22;3735;50.136;11.062;2022-10-16T05:10:40;14.70;99.90
7388;DHT22;3735;50.136;11.062;2022-10-16T05:13:07;14.70;99.90
7388;DHT22;3735;50.136;11.062;2022-10-16T05:15:33;14.70;99.90
7388;DHT22;3735;50.136;11.062;2022-10-16T05:17:59;14.70;99.90
7388;DHT22;3735;50.136;11.062;2022-10-16T05:20:25;14.70;99.90
7388;DHT22;3735;50.136;11.062;2022-10-16T05:22:51;14.70;99.90
7388;DHT22;3735;50.136;11.062;2022-10-16T05:25:16;14.70;99.90
7388;DHT22;3735;50.136;11.062;2022-10-16T05:27:42;14.70;99.90
7388;DHT22;3735;50.136;11.062;2022-10-16T05:30:08;14.70;99.90
7388;DHT22;3735;50.136;11.062;2022-10-16T05:32:34;14.60;99.90
7388;DHT22;3735;50.136;11.062;2022-10-16T05:35:00;14.60;99.90
7388;DHT22;3735;50.136;11.062;2022-10-16T05:37:27;14.60;99.90
7388;DHT22;3735;50.136;11.062;2022-10-16T05:39:53;14.60;99.90
7388;DHT22;3735;50.136;11.062;2022-10-16T05:42:19;14.60;99.90
7388;DHT22;3735;50.136;11.062;2022-10-16T05:44:44;14.60;99.90
7388;DHT22;3735;50.136;11.062;2022-10-16T05:47:12;14.60;99.90
7388;DHT22;3735;50.136;11.062;2022-10-16T05:49:39;14.60;99.90
7388;DHT22;3735;50.136;11.062;2022-10-16T05:52:05;14.60;99.90
7388;DHT22;3735;50.136;11.062;2022-10-16T05:54:31;14.60;99.90
7388;DHT22;3735;50.136;11.062;2022-10-16T05:56:56;14.60;99.90
7388;DHT22;3735;50.136;11.062;2022-10-16T05:59:22;14.60;99.90
7388;DHT22;3735;50.136;11.062;2022-10-16T06:01:48;14.50;99.90
7388;DHT22;3735;50.136;11.062;2022-10-16T06:04:14;14.50;99.90
7388;DHT22;3735;50.136;11.062;2022-10-16T06:06:40;14.50;99.90
7388;DHT22;3735;50.136;11.062;2022-10-16T06:09:06;14.60;99.90
7388;DHT22;3735;50.136;11.062;2022-10-16T06:11:32;14.60;99.90
7388;DHT22;3735;50.136;11.062;2022-10-16T06:14:01;14.60;99.90
7388;DHT22;3735;50.136;11.062;2022-10-16T06:16:32;14.70;99.90
7388;DHT22;3735;50.136;11.062;2022-10-16T06:19:02;14.70;99.90
7388;DHT22;3735;50.136;11.062;2022-10-16T06:21:32;14.80;99.90
7388;DHT22;3735;50.136;11.062;2022-10-16T06:23:58;14.80;99.90
7388;DHT22;3735;50.136;11.062;2022-10-16T06:26:26;14.80;99.90
7388;DHT22;3735;50.136;11.062;2022-10-16T06:28:58;14.90;99.90
7388;DHT22;3735;50.136;11.062;2022-10-16T06:31:25;14.90;99.90
7388;DHT22;3735;50.136;11.062;2022-10-16T06:33:54;15.00;99.90
7388;DHT22;3735;50.136;11.062;2022-10-16T06:36:21;14.90;99.90
7388;DHT22;3735;50.136;11.062;2022-10-16T06:38:48;14.90;99.90
7388;DHT22;3735;50.136;11.062;2022-10-16T06:41:19;14.90;99.90
7388;DHT22;3735;50.136;11.062;2022-10-16T06:43:47;14.80;99.90
7388;DHT22;3735;50.136;11.062;2022-10-16T06:46:15;14.80;99.90
7388;DHT22;3735;50.136;11.062;2022-10-16T06:48:43;14.90;99.90
7388;DHT22;3735;50.136;11.062;2022-10-16T06:53:38;15.00;99.90
7388;DHT22;3735;50.136;11.062;2022-10-16T06:56:17;15.00;99.90
7388;DHT22;3735;50.136;11.062;2022-10-16T06:58:48;15.10;99.90
7388;DHT22;3735;50.136;11.062;2022-10-16T07:01:15;15.20;99.90
7388;DHT22;3735;50.136;11.062;2022-10-16T07:03:44;15.30;99.90
7388;DHT22;3735;50.136;11.062;2022-10-16T07:06:13;15.40;99.90
7388;DHT22;3735;50.136;11.062;2022-10-16T07:08:42;15.50;99.90
7388;DHT22;3735;50.136;11.062;2022-10-16T07:11:12;15.60;99.90
7388;DHT22;3735;50.136;11.062;2022-10-16T07:13:41;15.60;99.90
7388;DHT22;3735;50.136;11.062;2022-10-16T07:16:11;15.60;99.90
7388;DHT22;3735;50.136;11.062;2022-10-16T07:18:42;15.70;99.90
7388;DHT22;3735;50.136;11.062;2022-10-16T07:21:13;15.70;99.90
7388;DHT22;3735;50.136;11.062;2022-10-16T07:23:44;15.80;99.90
7388;DHT22;3735;50.136;11.062;2022-10-16T07:26:10;15.90;99.90
7388;DHT22;3735;50.136;11.062;2022-10-16T07:28:37;15.90;99.90
7388;DHT22;3735;50.136;11.062;2022-10-16T07:31:10;16.00;99.90
7388;DHT22;3735;50.136;11.062;2022-10-16T07:33:39;16.10;99.90
7388;DHT22;3735;50.136;11.062;2022-10-16T07:36:08;16.20;99.90
7388;DHT22;3735;50.136;11.062;2022-10-16T07:38:34;16.40;99.90
7388;DHT22;3735;50.136;11.062;2022-10-16T07:41:02;16.70;99.90
7388;DHT22;3735;50.136;11.062;2022-10-16T07:43:30;17.10;99.90
7388;DHT22;3735;50.136;11.062;2022-10-16T07:45:56;17.30;99.90
7388;DHT22;3735;50.136;11.062;2022-10-16T07:48:23;17.50;99.90
7388;DHT22;3735;50.136;11.062;2022-10-16T07:50:51;17.90;99.90
7388;DHT22;3735;50.136;11.062;2022-10-16T07:53:17;18.90;99.90
7388;DHT22;3735;50.136;11.062;2022-10-16T07:55:43;20.60;99.90
7388;DHT22;3735;50.136;11.062;2022-10-16T07:58:09;22.00;99.90
7388;DHT22;3735;50.136;11.062;2022-10-16T08:00:36;23.60;99.90
7388;DHT22;3735;50.136;11.062;2022-10-16T08:03:03;25.60;99.90
7388;DHT22;3735;50.136;11.062;2022-10-16T08:05:31;25.70;99.90
7388;DHT22;3735;50.136;11.062;2022-10-16T08:07:58;26.20;99.90
7388;DHT22;3735;50.136;11.062;2022-10-16T08:10:25;25.60;99.90
7388;DHT22;3735;50.136;11.062;2022-10-16T08:12:52;24.60;99.90
7388;DHT22;3735;50.136;11.062;2022-10-16T08:15:19;23.60;99.90
7388;DHT22;3735;50.136;11.062;2022-10-16T08:17:55;23.50;99.90
7388;DHT22;3735;50.136;11.062;2022-10-16T08:20:25;24.20;99.90
7388;DHT22;3735;50.136;11.062;2022-10-16T08:22:52;24.50;99.90
7388;DHT22;3735;50.136;11.062;2022-10-16T08:25:20;24.30;99.90
7388;DHT22;3735;50.136;11.062;2022-10-16T08:27:46;25.10;99.90
7388;DHT22;3735;50.136;11.062;2022-10-16T08:30:12;25.40;99.90
7388;DHT22;3735;50.136;11.062;2022-10-16T08:32:38;25.10;99.90
7388;DHT22;3735;50.136;11.062;2022-10-16T08:35:06;24.00;99.90
7388;DHT22;3735;50.136;11.062;2022-10-16T08:37:33;22.90;99.90
7388;DHT22;3735;50.136;11.062;2022-10-16T08:39:59;22.00;99.90
7388;DHT22;3735;50.136;11.062;2022-10-16T08:48:56;21.40;99.90
7388;DHT22;3735;50.136;11.062;2022-10-16T08:51:32;21.50;99.90
7388;DHT22;3735;50.136;11.062;2022-10-16T08:54:22;21.10;99.90
7388;DHT22;3735;50.136;11.062;2022-10-16T08:56:57;20.60;99.90
7388;DHT22;3735;50.136;11.062;2022-10-16T08:59:33;20.00;99.90
7388;DHT22;3735;50.136;11.062;2022-10-16T09:01:59;19.60;99.90
7388;DHT22;3735;50.136;11.062;2022-10-16T09:13:26;19.30;99.90
7388;DHT22;3735;50.136;11.062;2022-10-16T09:16:19;19.70;99.90
7388;DHT22;3735;50.136;11.062;2022-10-16T09:18:54;19.70;99.90
7388;DHT22;3735;50.136;11.062;2022-10-16T09:21:44;19.70;99.90
7388;DHT22;3735;50.136;11.062;2022-10-16T09:24:16;19.80;99.90
7388;DHT22;3735;50.136;11.062;2022-10-16T09:26:44;19.80;99.90
7388;DHT22;3735;50.136;11.062;2022-10-16T09:29:18;19.70;99.90
7388;DHT22;3735;50.136;11.062;2022-10-16T09:31:46;19.50;99.90
7388;DHT22;3735;50.136;11.062;2022-10-16T09:34:30;19.40;99.90
7388;DHT22;3735;50.136;11.062;2022-10-16T09:37:03;19.30;99.90
7388;DHT22;3735;50.136;11.062;2022-10-16T09:39:51;19.40;99.90
7388;DHT22;3735;50.136;11.062;2022-10-16T09:42:20;19.50;99.90
7388;DHT22;3735;50.136;11.062;2022-10-16T09:44:50;19.50;99.90
7388;DHT22;3735;50.136;11.062;2022-10-16T09:47:21;19.50;99.90
7388;DHT22;3735;50.136;11.062;2022-10-16T09:52:23;19.50;99.90
7388;DHT22;3735;50.136;11.062;2022-10-16T09:54:57;19.60;99.90
7388;DHT22;3735;50.136;11.062;2022-10-16T09:57:28;19.70;99.90
7388;DHT22;3735;50.136;11.062;2022-10-16T09:59:57;20.10;99.90
7388;DHT22;3735;50.136;11.062;2022-10-16T10:02:44;20.40;99.90
7388;DHT22;3735;50.136;11.062;2022-10-16T10:05:27;20.90;99.90
7388;DHT22;3735;50.136;11.062;2022-10-16T10:07:57;21.40;99.90
7388;DHT22;3735;50.136;11.062;2022-10-16T10:10:27;21.80;99.90
7388;DHT22;3735;50.136;11.062;2022-10-16T10:12:55;22.10;99.90
7388;DHT22;3735;50.136;11.062;2022-10-16T10:15:23;22.60;99.90
7388;DHT22;3735;50.136;11.062;2022-10-16T10:17:57;23.40;99.90
7388;DHT22;3735;50.136;11.062;2022-10-16T10:20:33;24.60;99.90
7388;DHT22;3735;50.136;11.062;2022-10-16T10:23:01;25.50;99.90
7388;DHT22;3735;50.136;11.062;2022-10-16T10:26:02;26.40;99.90
7388;DHT22;3735;50.136;11.062;2022-10-16T10:28:52;26.30;99.90
7388;DHT22;3735;50.136;11.062;2022-10-16T10:36:39;25.90;99.90
7388;DHT22;3735;50.136;11.062;2022-10-16T10:42:02;25.10;99.90
7388;DHT22;3735;50.136;11.062;2022-10-16T10:51:01;24.00;99.90
7388;DHT22;3735;50.136;11.062;2022-10-16T10:53:47;23.40;99.90
7388;DHT22;3735;50.136;11.062;2022-10-16T10:57:03;22.90;99.90
7388;DHT22;3735;50.136;11.062;2022-10-16T11:06:48;21.40;99.90
7388;DHT22;3735;50.136;11.062;2022-10-16T11:09:00;20.80;99.90
7388;DHT22;3735;50.136;11.062;2022-10-16T11:11:40;20.20;99.90
7388;DHT22;3735;50.136;11.062;2022-10-16T11:14:16;19.70;99.90
7388;DHT22;3735;50.136;11.062;2022-10-16T11:16:52;19.20;99.90
7388;DHT22;3735;50.136;11.062;2022-10-16T11:19:44;18.80;99.90
7388;DHT22;3735;50.136;11.062;2022-10-16T11:28:19;18.50;99.90
7388;DHT22;3735;50.136;11.062;2022-10-16T11:34:06;18.20;99.90
7388;DHT22;3735;50.136;11.062;2022-10-16T11:36:47;18.00;99.90
7388;DHT22;3735;50.136;11.062;2022-10-16T11:39:22;17.90;99.90
7388;DHT22;3735;50.136;11.062;2022-10-16T11:41:52;18.10;99.90
7388;DHT22;3735;50.136;11.062;2022-10-16T11:45:00;18.30;99.90
7388;DHT22;3735;50.136;11.062;2022-10-16T11:47:45;18.80;99.90
7388;DHT22;3735;50.136;11.062;2022-10-16T11:50:24;19.90;99.90
7388;DHT22;3735;50.136;11.062;2022-10-16T11:56:18;19.50;99.90
7388;DHT22;3735;50.136;11.062;2022-10-16T12:01:26;19.10;99.90
7388;DHT22;3735;50.136;11.062;2022-10-16T12:07:08;19.00;99.90
7388;DHT22;3735;50.136;11.062;2022-10-16T12:09:40;19.30;99.90
7388;DHT22;3735;50.136;11.062;2022-10-16T12:12:26;19.40;99.90
7388;DHT22;3735;50.136;11.062;2022-10-16T12:17:51;19.80;99.90
7388;DHT22;3735;50.136;11.062;2022-10-16T12:22:50;20.60;99.90
7388;DHT22;3735;50.136;11.062;2022-10-16T12:25:32;22.60;99.90
7388;DHT22;3735;50.136;11.062;2022-10-16T12:28:02;23.50;99.90
7388;DHT22;3735;50.136;11.062;2022-10-16T12:30:31;24.80;99.90
7388;DHT22;3735;50.136;11.062;2022-10-16T12:33:18;27.20;99.90
7388;DHT22;3735;50.136;11.062;2022-10-16T12:35:46;29.10;99.90
7388;DHT22;3735;50.136;11.062;2022-10-16T12:38:21;30.70;99.90
7388;DHT22;3735;50.136;11.062;2022-10-16T12:41:03;31.10;99.90
7388;DHT22;3735;50.136;11.062;2022-10-16T12:43:45;31.50;99.90
7388;DHT22;3735;50.136;11.062;2022-10-16T12:48:40;29.60;99.90
7388;DHT22;3735;50.136;11.062;2022-10-16T12:51:12;30.10;99.90
7388;DHT22;3735;50.136;11.062;2022-10-16T12:53:38;31.00;99.90
7388;DHT22;3735;50.136;11.062;2022-10-16T12:56:24;31.90;99.90
7388;DHT22;3735;50.136;11.062;2022-10-16T12:59:16;32.40;99.90
7388;DHT22;3735;50.136;11.062;2022-10-16T13:11:07;31.90;99.90
7388;DHT22;3735;50.136;11.062;2022-10-16T13:16:33;32.90;99.90
7388;DHT22;3735;50.136;11.062;2022-10-16T13:19:48;32.70;99.90
7388;DHT22;3735;50.136;11.062;2022-10-16T13:28:30;33.90;99.90
7388;DHT22;3735;50.136;11.062;2022-10-16T13:30:59;34.20;99.90
7388;DHT22;3735;50.136;11.062;2022-10-16T13:36:04;34.40;99.90
7388;DHT22;3735;50.136;11.062;2022-10-16T13:38:35;34.20;99.90
7388;DHT22;3735;50.136;11.062;2022-10-16T13:41:04;33.80;99.90
7388;DHT22;3735;50.136;11.062;2022-10-16T13:43:38;33.60;99.90
7388;DHT22;3735;50.136;11.062;2022-10-16T13:46:18;33.00;99.90
7388;DHT22;3735;50.136;11.062;2022-10-16T13:48:56;32.80;99.90
7388;DHT22;3735;50.136;11.062;2022-10-16T13:51:24;32.30;99.90
7388;DHT22;3735;50.136;11.062;2022-10-16T13:53:50;31.20;99.90
7388;DHT22;3735;50.136;11.062;2022-10-16T13:56:19;31.00;99.90
7388;DHT22;3735;50.136;11.062;2022-10-16T13:58:58;30.90;99.90
7388;DHT22;3735;50.136;11.062;2022-10-16T14:01:41;30.90;99.90
7388;DHT22;3735;50.136;11.062;2022-10-16T14:04:11;30.90;99.90
7388;DHT22;3735;50.136;11.062;2022-10-16T14:06:44;31.00;99.90
7388;DHT22;3735;50.136;11.062;2022-10-16T14:09:22;30.80;99.90
7388;DHT22;3735;50.136;11.062;2022-10-16T14:11:57;30.80;99.90
7388;DHT22;3735;50.136;11.062;2022-10-16T14:14:29;30.70;99.90
7388;DHT22;3735;50.136;11.062;2022-10-16T14:17:02;30.60;99.90
7388;DHT22;3735;50.136;11.062;2022-10-16T14:19:29;30.80;99.90
7388;DHT22;3735;50.136;11.062;2022-10-16T14:21:56;30.90;99.90
7388;DHT22;3735;50.136;11.062;2022-10-16T14:24:34;31.10;99.90
7388;DHT22;3735;50.136;11.062;2022-10-16T14:27:01;31.10;99.90
7388;DHT22;3735;50.136;11.062;2022-10-16T14:29:29;31.20;99.90
7388;DHT22;3735;50.136;11.062;2022-10-16T14:32:00;31.40;99.90
7388;DHT22;3735;50.136;11.062;2022-10-16T14:34:33;31.30;99.90
7388;DHT22;3735;50.136;11.062;2022-10-16T14:37:09;31.10;99.90
7388;DHT22;3735;50.136;11.062;2022-10-16T14:39:42;30.60;99.90
7388;DHT22;3735;50.136;11.062;2022-10-16T14:42:14;29.90;99.90
7388;DHT22;3735;50.136;11.062;2022-10-16T14:44:44;29.20;99.90
7388;DHT22;3735;50.136;11.062;2022-10-16T14:47:17;28.30;99.90
7388;DHT22;3735;50.136;11.062;2022-10-16T14:49:50;27.80;99.90
7388;DHT22;3735;50.136;11.062;2022-10-16T14:52:18;26.90;99.90
7388;DHT22;3735;50.136;11.062;2022-10-16T14:54:46;25.90;99.90
7388;DHT22;3735;50.136;11.062;2022-10-16T14:57:19;25.00;99.90
7388;DHT22;3735;50.136;11.062;2022-10-16T14:59:48;24.10;99.90
7388;DHT22;3735;50.136;11.062;2022-10-16T15:02:28;23.50;99.90
7388;DHT22;3735;50.136;11.062;2022-10-16T15:04:57;23.10;99.90
7388;DHT22;3735;50.136;11.062;2022-10-16T15:07:24;22.70;99.90
7388;DHT22;3735;50.136;11.062;2022-10-16T15:09:50;22.30;99.90
7388;DHT22;3735;50.136;11.062;2022-10-16T15:12:16;21.90;99.90
7388;DHT22;3735;50.136;11.062;2022-10-16T15:14:43;21.60;99.90
7388;DHT22;3735;50.136;11.062;2022-10-16T15:17:10;21.30;99.90
7388;DHT22;3735;50.136;11.062;2022-10-16T15:19:36;20.90;99.90
7388;DHT22;3735;50.136;11.062;2022-10-16T15:22:02;20.60;99.90
7388;DHT22;3735;50.136;11.062;2022-10-16T15:24:28;20.20;99.90
7388;DHT22;3735;50.136;11.062;2022-10-16T15:26:54;19.90;99.90
7388;DHT22;3735;50.136;11.062;2022-10-16T15:29:19;19.60;99.90
7388;DHT22;3735;50.136;11.062;2022-10-16T15:31:45;19.30;99.90
7388;DHT22;3735;50.136;11.062;2022-10-16T15:34:13;19.20;99.90
7388;DHT22;3735;50.136;11.062;2022-10-16T15:36:40;19.10;99.90
7388;DHT22;3735;50.136;11.062;2022-10-16T15:39:13;19.00;99.90
7388;DHT22;3735;50.136;11.062;2022-10-16T15:41:40;18.80;99.90
7388;DHT22;3735;50.136;11.062;2022-10-16T15:44:06;18.80;99.90
7388;DHT22;3735;50.136;11.062;2022-10-16T15:46:32;18.70;99.90
7388;DHT22;3735;50.136;11.062;2022-10-16T15:48:59;18.60;99.90
7388;DHT22;3735;50.136;11.062;2022-10-16T15:51:27;18.50;99.90
7388;DHT22;3735;50.136;11.062;2022-10-16T15:53:56;18.40;99.90
7388;DHT22;3735;50.136;11.062;2022-10-16T15:56:23;18.30;99.90
7388;DHT22;3735;50.136;11.062;2022-10-16T15:58:51;18.20;99.90
7388;DHT22;3735;50.136;11.062;2022-10-16T16:01:19;18.10;99.90
7388;DHT22;3735;50.136;11.062;2022-10-16T16:03:47;18.00;99.90
7388;DHT22;3735;50.136;11.062;2022-10-16T16:06:13;17.90;99.90
7388;DHT22;3735;50.136;11.062;2022-10-16T16:08:39;17.80;99.90
7388;DHT22;3735;50.136;11.062;2022-10-16T16:11:11;17.80;99.90
7388;DHT22;3735;50.136;11.062;2022-10-16T16:13:39;17.70;99.90
7388;DHT22;3735;50.136;11.062;2022-10-16T16:16:07;17.60;99.90
7388;DHT22;3735;50.136;11.062;2022-10-16T16:18:34;17.50;99.90
7388;DHT22;3735;50.136;11.062;2022-10-16T16:21:01;17.50;99.90
7388;DHT22;3735;50.136;11.062;2022-10-16T16:23:27;17.40;99.90
7388;DHT22;3735;50.136;11.062;2022-10-16T16:26:08;17.30;99.90
7388;DHT22;3735;50.136;11.062;2022-10-16T16:28:38;17.30;99.90
7388;DHT22;3735;50.136;11.062;2022-10-16T16:31:05;17.20;99.90
7388;DHT22;3735;50.136;11.062;2022-10-16T16:33:31;17.20;99.90
7388;DHT22;3735;50.136;11.062;2022-10-16T16:36:03;17.10;99.90
7388;DHT22;3735;50.136;11.062;2022-10-16T16:38:32;17.10;99.90
7388;DHT22;3735;50.136;11.062;2022-10-16T16:40:58;17.00;99.90
7388;DHT22;3735;50.136;11.062;2022-10-16T16:43:26;17.00;99.90
7388;DHT22;3735;50.136;11.062;2022-10-16T16:45:53;17.00;99.90
7388;DHT22;3735;50.136;11.062;2022-10-16T16:48:20;16.90;99.90
7388;DHT22;3735;50.136;11.062;2022-10-16T16:50:46;16.90;99.90
7388;DHT22;3735;50.136;11.062;2022-10-16T16:53:12;16.90;99.90
7388;DHT22;3735;50.136;11.062;2022-10-16T16:55:38;16.90;99.90
7388;DHT22;3735;50.136;11.062;2022-10-16T16:58:04;16.80;99.90
7388;DHT22;3735;50.136;11.062;2022-10-16T17:00:30;16.80;99.90
7388;DHT22;3735;50.136;11.062;2022-10-16T17:02:56;16.80;99.90
7388;DHT22;3735;50.136;11.062;2022-10-16T17:05:22;16.70;99.90
7388;DHT22;3735;50.136;11.062;2022-10-16T17:07:48;16.70;99.90
7388;DHT22;3735;50.136;11.062;2022-10-16T17:10:14;16.70;99.90
7388;DHT22;3735;50.136;11.062;2022-10-16T17:12:40;16.70;99.90
7388;DHT22;3735;50.136;11.062;2022-10-16T17:15:06;16.60;99.90
7388;DHT22;3735;50.136;11.062;2022-10-16T17:17:32;16.60;99.90
7388;DHT22;3735;50.136;11.062;2022-10-16T17:19:58;16.60;99.90
7388;DHT22;3735;50.136;11.062;2022-10-16T17:22:24;16.50;99.90
7388;DHT22;3735;50.136;11.062;2022-10-16T17:24:50;16.50;99.90
7388;DHT22;3735;50.136;11.062;2022-10-16T17:27:17;16.50;99.90
7388;DHT22;3735;50.136;11.062;2022-10-16T17:29:44;16.50;99.90
7388;DHT22;3735;50.136;11.062;2022-10-16T17:32:09;16.50;99.90
7388;DHT22;3735;50.136;11.062;2022-10-16T17:34:36;16.50;99.90
7388;DHT22;3735;50.136;11.062;2022-10-16T17:37:02;16.50;99.90
7388;DHT22;3735;50.136;11.062;2022-10-16T17:39:28;16.40;99.90
7388;DHT22;3735;50.136;11.062;2022-10-16T17:41:54;16.40;99.90
7388;DHT22;3735;50.136;11.062;2022-10-16T17:44:20;16.40;99.90
7388;DHT22;3735;50.136;11.062;2022-10-16T17:46:48;16.40;99.90
7388;DHT22;3735;50.136;11.062;2022-10-16T17:49:16;16.30;99.90
7388;DHT22;3735;50.136;11.062;2022-10-16T17:51:42;16.30;99.90
7388;DHT22;3735;50.136;11.062;2022-10-16T17:54:09;16.30;99.90